sensor_id;sensor_type;location;lat;lon;timestamp;pressure;altitude;pressure_sealevel;temperature;humidity
7918;BME280;4004;42.624;23.386;2024-02-21T00:02:22;94779.66;;;5.99;nan
7918;BME280;4004;42.624;23.386;2024-02-21T00:04:49;94774.16;;;5.96;nan
7918;BME280;4004;42.624;23.386;2024-02-21T00:07:16;94769.75;;;6.00;nan
7918;BME280;4004;42.624;23.386;2024-02-21T00:09:43;94769.63;;;6.05;nan
7918;BME280;4004;42.624;23.386;2024-02-21T00:12:11;94770.03;;;5.90;nan
7918;BME280;4004;42.624;23.386;2024-02-21T00:14:39;94759.31;;;5.81;nan
7918;BME280;4004;42.624;23.386;2024-02-21T00:17:07;94762.63;;;5.87;nan
7918;BME280;4004;42.624;23.386;2024-02-21T00:19:34;94765.78;;;5.89;nan
7918;BME280;4004;42.624;23.386;2024-02-21T00:22:01;94765.00;;;5.88;nan
7918;BME280;4004;42.624;23.386;2024-02-21T00:24:28;94762.94;;;5.85;nan
7918;BME280;4004;42.624;23.386;2024-02-21T00:26:55;94764.34;;;5.82;nan
7918;BME280;4004;42.624;23.386;2024-02-21T00:29:23;94764.69;;;5.90;nan
7918;BME280;4004;42.624;23.386;2024-02-21T00:31:50;94759.84;;;5.92;nan
7918;BME280;4004;42.624;23.386;2024-02-21T00:34:17;94760.91;;;5.91;nan
7918;BME280;4004;42.624;23.386;2024-02-21T00:36:44;94757.94;;;5.92;nan
7918;BME280;4004;42.624;23.386;2024-02-21T00:39:11;94752.13;;;5.90;nan
7918;BME280;4004;42.624;23.386;2024-02-21T00:41:38;94759.63;;;5.79;nan
7918;BME280;4004;42.624;23.386;2024-02-21T00:44:04;94757.91;;;5.84;nan
7918;BME280;4004;42.624;23.386;2024-02-21T00:46:33;94754.13;;;5.85;nan
7918;BME280;4004;42.624;23.386;2024-02-21T00:49:00;94751.28;;;5.72;nan
7918;BME280;4004;42.624;23.386;2024-02-21T00:51:27;94759.91;;;5.69;nan
7918;BME280;4004;42.624;23.386;2024-02-21T00:53:54;94757.25;;;5.69;nan
7918;BME280;4004;42.624;23.386;2024-02-21T00:56:21;94760.19;;;5.59;nan
7918;BME280;4004;42.624;23.386;2024-02-21T00:58:48;94753.44;;;5.61;nan
7918;BME280;4004;42.624;23.386;2024-02-21T01:01:21;94757.22;;;5.60;nan
7918;BME280;4004;42.624;23.386;2024-02-21T01:03:50;94751.22;;;5.55;nan
7918;BME280;4004;42.624;23.386;2024-02-21T01:06:18;94742.59;;;5.58;nan
7918;BME280;4004;42.624;23.386;2024-02-21T01:08:46;94740.53;;;5.55;nan
7918;BME280;4004;42.624;23.386;2024-02-21T01:11:13;94739.72;;;5.46;nan
7918;BME280;4004;42.624;23.386;2024-02-21T01:13:40;94734.56;;;5.58;nan
7918;BME280;4004;42.624;23.386;2024-02-21T01:16:07;94732.88;;;5.62;nan
7918;BME280;4004;42.624;23.386;2024-02-21T01:18:34;94731.78;;;5.63;nan
7918;BME280;4004;42.624;23.386;2024-02-21T01:21:03;94729.28;;;5.67;nan
7918;BME280;4004;42.624;23.386;2024-02-21T01:23:32;94725.69;;;5.63;nan
7918;BME280;4004;42.624;23.386;2024-02-21T01:25:59;94721.59;;;5.65;nan
7918;BME280;4004;42.624;23.386;2024-02-21T01:28:26;94725.06;;;5.66;nan
7918;BME280;4004;42.624;23.386;2024-02-21T01:30:53;94724.75;;;5.67;nan
7918;BME280;4004;42.624;23.386;2024-02-21T01:33:19;94727.88;;;5.60;nan
7918;BME280;4004;42.624;23.386;2024-02-21T01:35:46;94727.69;;;5.57;nan
7918;BME280;4004;42.624;23.386;2024-02-21T01:38:16;94725.03;;;5.57;nan
7918;BME280;4004;42.624;23.386;2024-02-21T01:40:42;94726.63;;;5.67;nan
7918;BME280;4004;42.624;23.386;2024-02-21T01:43:16;94721.94;;;5.72;nan
7918;BME280;4004;42.624;23.386;2024-02-21T01:45:43;94718.34;;;5.77;nan
7918;BME280;4004;42.624;23.386;2024-02-21T01:48:12;94720.34;;;5.71;nan
7918;BME280;4004;42.624;23.386;2024-02-21T01:50:39;94716.31;;;5.74;nan
7918;BME280;4004;42.624;23.386;2024-02-21T01:53:07;94726.31;;;5.68;nan
7918;BME280;4004;42.624;23.386;2024-02-21T01:55:36;94716.31;;;5.74;nan
7918;BME280;4004;42.624;23.386;2024-02-21T01:58:03;94715.00;;;5.71;nan
7918;BME280;4004;42.624;23.386;2024-02-21T02:00:31;94715.81;;;5.72;nan
7918;BME280;4004;42.624;23.386;2024-02-21T02:02:58;94709.38;;;5.73;nan
7918;BME280;4004;42.624;23.386;2024-02-21T02:05:25;94714.41;;;5.74;nan
7918;BME280;4004;42.624;23.386;2024-02-21T02:07:53;94698.72;;;5.81;nan
7918;BME280;4004;42.624;23.386;2024-02-21T02:10:20;94703.44;;;5.85;nan
7918;BME280;4004;42.624;23.386;2024-02-21T02:12:48;94708.31;;;5.82;nan
7918;BME280;4004;42.624;23.386;2024-02-21T02:15:15;94702.06;;;5.87;nan
7918;BME280;4004;42.624;23.386;2024-02-21T02:17:42;94700.91;;;5.79;nan
7918;BME280;4004;42.624;23.386;2024-02-21T02:20:09;94705.00;;;5.77;nan
7918;BME280;4004;42.624;23.386;2024-02-21T02:22:37;94708.13;;;5.70;nan
7918;BME280;4004;42.624;23.386;2024-02-21T02:25:07;94699.59;;;5.59;nan
7918;BME280;4004;42.624;23.386;2024-02-21T02:27:41;94708.34;;;5.51;nan
7918;BME280;4004;42.624;23.386;2024-02-21T02:30:11;94698.16;;;5.53;nan
7918;BME280;4004;42.624;23.386;2024-02-21T02:32:38;94707.75;;;5.54;nan
7918;BME280;4004;42.624;23.386;2024-02-21T02:35:05;94700.25;;;5.65;nan
7918;BME280;4004;42.624;23.386;2024-02-21T02:37:32;94698.69;;;5.64;nan
7918;BME280;4004;42.624;23.386;2024-02-21T02:39:59;94696.00;;;5.64;nan
7918;BME280;4004;42.624;23.386;2024-02-21T02:42:27;94703.56;;;5.71;nan
7918;BME280;4004;42.624;23.386;2024-02-21T02:44:54;94692.28;;;5.74;nan
7918;BME280;4004;42.624;23.386;2024-02-21T02:47:22;94701.56;;;5.76;nan
7918;BME280;4004;42.624;23.386;2024-02-21T02:49:49;94695.25;;;5.72;nan
7918;BME280;4004;42.624;23.386;2024-02-21T02:52:16;94695.09;;;5.77;nan
7918;BME280;4004;42.624;23.386;2024-02-21T02:54:43;94692.44;;;5.77;nan
7918;BME280;4004;42.624;23.386;2024-02-21T02:57:10;94689.16;;;5.80;nan
7918;BME280;4004;42.624;23.386;2024-02-21T02:59:38;94689.66;;;5.82;nan
7918;BME280;4004;42.624;23.386;2024-02-21T03:02:05;94694.34;;;5.86;nan
7918;BME280;4004;42.624;23.386;2024-02-21T03:04:32;94695.78;;;5.92;nan
7918;BME280;4004;42.624;23.386;2024-02-21T03:07:00;94696.09;;;5.90;nan
7918;BME280;4004;42.624;23.386;2024-02-21T03:09:27;94695.31;;;5.90;nan
7918;BME280;4004;42.624;23.386;2024-02-21T03:11:54;94704.78;;;5.96;nan
7918;BME280;4004;42.624;23.386;2024-02-21T03:14:27;94705.03;;;5.86;nan
7918;BME280;4004;42.624;23.386;2024-02-21T03:16:56;94706.63;;;5.95;nan
7918;BME280;4004;42.624;23.386;2024-02-21T03:19:23;94703.13;;;5.86;nan
7918;BME280;4004;42.624;23.386;2024-02-21T03:21:50;94720.56;;;5.84;nan
7918;BME280;4004;42.624;23.386;2024-02-21T03:24:17;94713.03;;;5.86;nan
7918;BME280;4004;42.624;23.386;2024-02-21T03:26:44;94721.34;;;5.84;nan
7918;BME280;4004;42.624;23.386;2024-02-21T03:29:11;94722.41;;;5.74;nan
7918;BME280;4004;42.624;23.386;2024-02-21T03:31:38;94722.94;;;5.85;nan
7918;BME280;4004;42.624;23.386;2024-02-21T03:34:06;94717.25;;;5.87;nan
7918;BME280;4004;42.624;23.386;2024-02-21T03:36:33;94722.00;;;5.90;nan
7918;BME280;4004;42.624;23.386;2024-02-21T03:39:00;94730.47;;;5.92;nan
7918;BME280;4004;42.624;23.386;2024-02-21T03:41:27;94730.84;;;5.99;nan
7918;BME280;4004;42.624;23.386;2024-02-21T03:43:54;94725.50;;;5.99;nan
7918;BME280;4004;42.624;23.386;2024-02-21T03:46:21;94729.59;;;6.05;nan
7918;BME280;4004;42.624;23.386;2024-02-21T03:48:48;94730.06;;;5.98;nan
7918;BME280;4004;42.624;23.386;2024-02-21T03:51:16;94728.47;;;5.97;nan
7918;BME280;4004;42.624;23.386;2024-02-21T03:53:43;94725.78;;;5.97;nan
7918;BME280;4004;42.624;23.386;2024-02-21T03:56:10;94726.44;;;6.03;nan
7918;BME280;4004;42.624;23.386;2024-02-21T03:58:36;94730.19;;;6.02;nan
7918;BME280;4004;42.624;23.386;2024-02-21T04:01:04;94730.84;;;5.99;nan
7918;BME280;4004;42.624;23.386;2024-02-21T04:03:31;94731.31;;;6.01;nan
7918;BME280;4004;42.624;23.386;2024-02-21T04:05:57;94725.34;;;6.04;nan
7918;BME280;4004;42.624;23.386;2024-02-21T04:08:26;94731.47;;;6.05;nan
7918;BME280;4004;42.624;23.386;2024-02-21T04:10:53;94728.34;;;6.11;nan
7918;BME280;4004;42.624;23.386;2024-02-21T04:13:19;94726.28;;;6.08;nan
7918;BME280;4004;42.624;23.386;2024-02-21T04:15:48;94733.66;;;6.11;nan
7918;BME280;4004;42.624;23.386;2024-02-21T04:18:15;94730.84;;;6.08;nan
7918;BME280;4004;42.624;23.386;2024-02-21T04:20:42;94724.88;;;6.11;nan
7918;BME280;4004;42.624;23.386;2024-02-21T04:23:09;94723.31;;;6.01;nan
7918;BME280;4004;42.624;23.386;2024-02-21T04:25:37;94721.25;;;5.98;nan
7918;BME280;4004;42.624;23.386;2024-02-21T04:28:05;94727.00;;;5.91;nan
7918;BME280;4004;42.624;23.386;2024-02-21T04:30:32;94722.78;;;5.90;nan
7918;BME280;4004;42.624;23.386;2024-02-21T04:32:59;94722.13;;;5.93;nan
7918;BME280;4004;42.624;23.386;2024-02-21T04:35:26;94727.47;;;5.93;nan
7918;BME280;4004;42.624;23.386;2024-02-21T04:37:53;94725.44;;;5.90;nan
7918;BME280;4004;42.624;23.386;2024-02-21T04:40:19;94724.34;;;5.91;nan
7918;BME280;4004;42.624;23.386;2024-02-21T04:42:48;94725.44;;;5.90;nan
7918;BME280;4004;42.624;23.386;2024-02-21T04:45:15;94721.81;;;5.86;nan
7918;BME280;4004;42.624;23.386;2024-02-21T04:47:42;94716.44;;;5.77;nan
7918;BME280;4004;42.624;23.386;2024-02-21T04:50:09;94721.44;;;5.61;nan
7918;BME280;4004;42.624;23.386;2024-02-21T04:52:36;94720.16;;;5.59;nan
7918;BME280;4004;42.624;23.386;2024-02-21T04:55:04;94729.59;;;5.65;nan
7918;BME280;4004;42.624;23.386;2024-02-21T04:57:31;94727.72;;;5.66;nan
7918;BME280;4004;42.624;23.386;2024-02-21T04:59:59;94728.97;;;5.68;nan
7918;BME280;4004;42.624;23.386;2024-02-21T05:02:26;94726.28;;;5.59;nan
7918;BME280;4004;42.624;23.386;2024-02-21T05:04:53;94717.50;;;5.59;nan
7918;BME280;4004;42.624;23.386;2024-02-21T05:07:20;94731.00;;;5.63;nan
7918;BME280;4004;42.624;23.386;2024-02-21T05:09:47;94726.09;;;5.47;nan
7918;BME280;4004;42.624;23.386;2024-02-21T05:12:14;94730.63;;;5.47;nan
7918;BME280;4004;42.624;23.386;2024-02-21T05:14:40;94739.00;;;5.31;nan
7918;BME280;4004;42.624;23.386;2024-02-21T05:17:09;94742.88;;;5.16;nan
7918;BME280;4004;42.624;23.386;2024-02-21T05:19:36;94738.31;;;5.17;nan
7918;BME280;4004;42.624;23.386;2024-02-21T05:22:03;94740.00;;;5.13;nan
7918;BME280;4004;42.624;23.386;2024-02-21T05:24:30;94741.75;;;5.17;nan
7918;BME280;4004;42.624;23.386;2024-02-21T05:26:57;94745.19;;;5.09;nan
7918;BME280;4004;42.624;23.386;2024-02-21T05:29:23;94744.69;;;5.07;nan
7918;BME280;4004;42.624;23.386;2024-02-21T05:31:56;94738.09;;;5.05;nan
7918;BME280;4004;42.624;23.386;2024-02-21T05:34:25;94746.13;;;5.13;nan
7918;BME280;4004;42.624;23.386;2024-02-21T05:36:53;94749.91;;;5.12;nan
7918;BME280;4004;42.624;23.386;2024-02-21T05:39:20;94758.66;;;5.13;nan
7918;BME280;4004;42.624;23.386;2024-02-21T05:41:48;94751.34;;;5.18;nan
7918;BME280;4004;42.624;23.386;2024-02-21T05:44:16;94746.38;;;5.26;nan
7918;BME280;4004;42.624;23.386;2024-02-21T05:46:43;94752.66;;;5.30;nan
7918;BME280;4004;42.624;23.386;2024-02-21T05:49:10;94743.56;;;5.31;nan
7918;BME280;4004;42.624;23.386;2024-02-21T05:51:38;94751.91;;;5.38;nan
7918;BME280;4004;42.624;23.386;2024-02-21T05:54:05;94753.06;;;5.46;nan
7918;BME280;4004;42.624;23.386;2024-02-21T05:56:33;94754.97;;;5.54;nan
7918;BME280;4004;42.624;23.386;2024-02-21T05:59:00;94763.31;;;5.61;nan
7918;BME280;4004;42.624;23.386;2024-02-21T06:01:27;94767.44;;;5.67;nan
7918;BME280;4004;42.624;23.386;2024-02-21T06:03:54;94762.13;;;5.76;nan
7918;BME280;4004;42.624;23.386;2024-02-21T06:06:21;94755.06;;;5.80;nan
7918;BME280;4004;42.624;23.386;2024-02-21T06:08:49;94766.22;;;5.82;nan
7918;BME280;4004;42.624;23.386;2024-02-21T06:11:16;94765.28;;;5.87;nan
7918;BME280;4004;42.624;23.386;2024-02-21T06:13:43;94775.28;;;5.72;nan
7918;BME280;4004;42.624;23.386;2024-02-21T06:16:10;94774.09;;;5.47;nan
7918;BME280;4004;42.624;23.386;2024-02-21T06:18:37;94781.06;;;5.34;nan
7918;BME280;4004;42.624;23.386;2024-02-21T06:21:04;94786.31;;;5.48;nan
7918;BME280;4004;42.624;23.386;2024-02-21T06:23:31;94780.34;;;5.43;nan
7918;BME280;4004;42.624;23.386;2024-02-21T06:25:59;94787.53;;;5.42;nan
7918;BME280;4004;42.624;23.386;2024-02-21T06:28:26;94787.13;;;5.26;nan
7918;BME280;4004;42.624;23.386;2024-02-21T06:30:53;94791.13;;;5.37;nan
7918;BME280;4004;42.624;23.386;2024-02-21T06:33:20;94792.59;;;5.21;nan
7918;BME280;4004;42.624;23.386;2024-02-21T06:35:50;94791.47;;;5.45;nan
7918;BME280;4004;42.624;23.386;2024-02-21T06:38:19;94792.53;;;5.97;nan
7918;BME280;4004;42.624;23.386;2024-02-21T06:40:46;94795.13;;;6.37;nan
7918;BME280;4004;42.624;23.386;2024-02-21T06:43:18;94790.47;;;6.78;nan
7918;BME280;4004;42.624;23.386;2024-02-21T06:45:45;94793.13;;;6.78;nan
7918;BME280;4004;42.624;23.386;2024-02-21T06:48:16;94804.78;;;6.82;nan
7918;BME280;4004;42.624;23.386;2024-02-21T06:50:43;94797.09;;;6.80;nan
7918;BME280;4004;42.624;23.386;2024-02-21T06:53:10;94807.75;;;6.89;nan
7918;BME280;4004;42.624;23.386;2024-02-21T06:55:37;94815.31;;;7.04;nan
7918;BME280;4004;42.624;23.386;2024-02-21T06:58:04;94813.28;;;7.10;nan
7918;BME280;4004;42.624;23.386;2024-02-21T07:00:35;94816.91;;;6.97;nan
7918;BME280;4004;42.624;23.386;2024-02-21T07:03:02;94810.13;;;6.91;nan
7918;BME280;4004;42.624;23.386;2024-02-21T07:05:29;94808.88;;;7.05;nan
7918;BME280;4004;42.624;23.386;2024-02-21T07:07:56;94806.50;;;7.13;nan
7918;BME280;4004;42.624;23.386;2024-02-21T07:10:23;94812.03;;;7.16;nan
7918;BME280;4004;42.624;23.386;2024-02-21T07:12:49;94814.06;;;7.19;nan
7918;BME280;4004;42.624;23.386;2024-02-21T07:15:18;94812.94;;;7.29;nan
7918;BME280;4004;42.624;23.386;2024-02-21T07:17:46;94812.63;;;7.39;nan
7918;BME280;4004;42.624;23.386;2024-02-21T07:20:13;94808.47;;;7.59;nan
7918;BME280;4004;42.624;23.386;2024-02-21T07:22:40;94810.81;;;7.70;nan
7918;BME280;4004;42.624;23.386;2024-02-21T07:25:07;94813.66;;;7.64;nan
7918;BME280;4004;42.624;23.386;2024-02-21T07:27:34;94822.19;;;7.49;nan
7918;BME280;4004;42.624;23.386;2024-02-21T07:30:03;94818.22;;;7.64;nan
7918;BME280;4004;42.624;23.386;2024-02-21T07:32:30;94814.59;;;7.68;nan
7918;BME280;4004;42.624;23.386;2024-02-21T07:34:58;94823.06;;;7.79;nan
7918;BME280;4004;42.624;23.386;2024-02-21T07:37:25;94817.19;;;7.95;nan
7918;BME280;4004;42.624;23.386;2024-02-21T07:39:52;94818.97;;;8.20;nan
7918;BME280;4004;42.624;23.386;2024-02-21T07:42:19;94815.75;;;8.36;nan
7918;BME280;4004;42.624;23.386;2024-02-21T07:44:46;94818.09;;;8.46;nan
7918;BME280;4004;42.624;23.386;2024-02-21T07:47:12;94826.06;;;8.55;nan
7918;BME280;4004;42.624;23.386;2024-02-21T07:49:44;94822.78;;;8.49;nan
7918;BME280;4004;42.624;23.386;2024-02-21T07:52:12;94800.19;;;8.59;nan
7918;BME280;4004;42.624;23.386;2024-02-21T07:54:39;94816.28;;;8.80;nan
7918;BME280;4004;42.624;23.386;2024-02-21T07:57:06;94814.00;;;8.90;nan
7918;BME280;4004;42.624;23.386;2024-02-21T07:59:33;94818.19;;;9.00;nan
7918;BME280;4004;42.624;23.386;2024-02-21T08:02:00;94820.97;;;8.91;nan
7918;BME280;4004;42.624;23.386;2024-02-21T08:04:28;94811.44;;;8.73;nan
7918;BME280;4004;42.624;23.386;2024-02-21T08:06:54;94819.91;;;8.84;nan
7918;BME280;4004;42.624;23.386;2024-02-21T08:09:26;94811.06;;;9.04;nan
7918;BME280;4004;42.624;23.386;2024-02-21T08:11:54;94812.44;;;9.10;nan
7918;BME280;4004;42.624;23.386;2024-02-21T08:14:21;94817.41;;;9.21;nan
7918;BME280;4004;42.624;23.386;2024-02-21T08:16:47;94817.97;;;9.26;nan
7918;BME280;4004;42.624;23.386;2024-02-21T08:19:14;94816.75;;;9.24;nan
7918;BME280;4004;42.624;23.386;2024-02-21T08:21:42;94813.22;;;9.11;nan
7918;BME280;4004;42.624;23.386;2024-02-21T08:24:09;94820.03;;;9.29;nan
7918;BME280;4004;42.624;23.386;2024-02-21T08:26:40;94822.28;;;9.40;nan
7918;BME280;4004;42.624;23.386;2024-02-21T08:29:07;94818.81;;;9.39;nan
7918;BME280;4004;42.624;23.386;2024-02-21T08:31:33;94811.44;;;9.36;nan
7918;BME280;4004;42.624;23.386;2024-02-21T08:34:01;94810.75;;;9.06;nan
7918;BME280;4004;42.624;23.386;2024-02-21T08:36:29;94814.44;;;9.34;nan
7918;BME280;4004;42.624;23.386;2024-02-21T08:38:56;94811.91;;;9.50;nan
7918;BME280;4004;42.624;23.386;2024-02-21T08:41:23;94813.84;;;9.62;nan
7918;BME280;4004;42.624;23.386;2024-02-21T08:43:51;94811.75;;;9.68;nan
7918;BME280;4004;42.624;23.386;2024-02-21T08:46:19;94811.75;;;9.68;nan
7918;BME280;4004;42.624;23.386;2024-02-21T08:48:46;94809.25;;;9.50;nan
7918;BME280;4004;42.624;23.386;2024-02-21T08:51:13;94816.84;;;9.48;nan
7918;BME280;4004;42.624;23.386;2024-02-21T08:53:40;94809.09;;;9.47;nan
7918;BME280;4004;42.624;23.386;2024-02-21T08:56:07;94808.16;;;9.64;nan
7918;BME280;4004;42.624;23.386;2024-02-21T08:58:35;94810.88;;;9.88;nan
7918;BME280;4004;42.624;23.386;2024-02-21T09:01:04;94812.69;;;9.96;nan
7918;BME280;4004;42.624;23.386;2024-02-21T09:03:31;94813.75;;;9.71;nan
7918;BME280;4004;42.624;23.386;2024-02-21T09:05:58;94814.47;;;9.92;nan
7918;BME280;4004;42.624;23.386;2024-02-21T09:08:25;94802.84;;;9.88;nan
7918;BME280;4004;42.624;23.386;2024-02-21T09:10:52;94815.72;;;9.83;nan
7918;BME280;4004;42.624;23.386;2024-02-21T09:13:20;94813.72;;;10.04;nan
7918;BME280;4004;42.624;23.386;2024-02-21T09:15:47;94810.41;;;10.32;nan
7918;BME280;4004;42.624;23.386;2024-02-21T09:18:16;94817.88;;;10.26;nan
7918;BME280;4004;42.624;23.386;2024-02-21T09:20:43;94810.28;;;10.16;nan
7918;BME280;4004;42.624;23.386;2024-02-21T09:23:10;94808.56;;;9.99;nan
7918;BME280;4004;42.624;23.386;2024-02-21T09:25:37;94801.19;;;10.08;nan
7918;BME280;4004;42.624;23.386;2024-02-21T09:28:04;94812.69;;;10.09;nan
7918;BME280;4004;42.624;23.386;2024-02-21T09:30:31;94811.41;;;10.40;nan
7918;BME280;4004;42.624;23.386;2024-02-21T09:32:58;94795.38;;;10.55;nan
7918;BME280;4004;42.624;23.386;2024-02-21T09:35:28;94812.53;;;10.63;nan
7918;BME280;4004;42.624;23.386;2024-02-21T09:37:55;94811.06;;;10.66;nan
7918;BME280;4004;42.624;23.386;2024-02-21T09:40:22;94812.84;;;10.62;nan
7918;BME280;4004;42.624;23.386;2024-02-21T09:42:58;94812.28;;;10.68;nan
7918;BME280;4004;42.624;23.386;2024-02-21T09:45:28;94808.81;;;10.68;nan
7918;BME280;4004;42.624;23.386;2024-02-21T09:48:08;94810.91;;;10.87;nan
7918;BME280;4004;42.624;23.386;2024-02-21T09:50:43;94819.53;;;10.80;nan
7918;BME280;4004;42.624;23.386;2024-02-21T09:53:11;94802.41;;;10.72;nan
7918;BME280;4004;42.624;23.386;2024-02-21T09:55:39;94808.25;;;10.74;nan
7918;BME280;4004;42.624;23.386;2024-02-21T09:58:07;94803.72;;;10.91;nan
7918;BME280;4004;42.624;23.386;2024-02-21T10:00:35;94804.03;;;10.89;nan
7918;BME280;4004;42.624;23.386;2024-02-21T10:03:02;94811.78;;;10.91;nan
7918;BME280;4004;42.624;23.386;2024-02-21T10:05:33;94801.09;;;11.07;nan
7918;BME280;4004;42.624;23.386;2024-02-21T10:08:03;94810.63;;;11.16;nan
7918;BME280;4004;42.624;23.386;2024-02-21T10:10:32;94815.38;;;10.95;nan
7918;BME280;4004;42.624;23.386;2024-02-21T10:13:06;94801.69;;;11.00;nan
7918;BME280;4004;42.624;23.386;2024-02-21T10:15:33;94793.56;;;11.12;nan
7918;BME280;4004;42.624;23.386;2024-02-21T10:18:01;94806.28;;;10.99;nan
7918;BME280;4004;42.624;23.386;2024-02-21T10:20:30;94797.19;;;11.04;nan
7918;BME280;4004;42.624;23.386;2024-02-21T10:23:05;94793.28;;;11.02;nan
7918;BME280;4004;42.624;23.386;2024-02-21T10:25:34;94790.38;;;11.23;nan
7918;BME280;4004;42.624;23.386;2024-02-21T10:28:04;94792.22;;;11.18;nan
7918;BME280;4004;42.624;23.386;2024-02-21T10:30:31;94786.47;;;11.20;nan
7918;BME280;4004;42.624;23.386;2024-02-21T10:32:57;94778.75;;;11.18;nan
7918;BME280;4004;42.624;23.386;2024-02-21T10:35:28;94778.25;;;11.01;nan
7918;BME280;4004;42.624;23.386;2024-02-21T10:37:56;94759.25;;;11.09;nan
7918;BME280;4004;42.624;23.386;2024-02-21T10:40:28;94763.09;;;11.08;nan
7918;BME280;4004;42.624;23.386;2024-02-21T10:42:57;94761.56;;;10.95;nan
7918;BME280;4004;42.624;23.386;2024-02-21T10:45:29;94754.56;;;11.06;nan
7918;BME280;4004;42.624;23.386;2024-02-21T10:48:01;94754.31;;;11.11;nan
7918;BME280;4004;42.624;23.386;2024-02-21T10:50:36;94751.84;;;11.18;nan
7918;BME280;4004;42.624;23.386;2024-02-21T10:53:11;94749.97;;;11.35;nan
7918;BME280;4004;42.624;23.386;2024-02-21T10:55:58;94739.81;;;11.44;nan
7918;BME280;4004;42.624;23.386;2024-02-21T10:58:28;94741.31;;;11.57;nan
7918;BME280;4004;42.624;23.386;2024-02-21T11:00:56;94734.38;;;11.56;nan
7918;BME280;4004;42.624;23.386;2024-02-21T11:03:23;94729.66;;;11.37;nan
7918;BME280;4004;42.624;23.386;2024-02-21T11:05:51;94728.28;;;11.15;nan
7918;BME280;4004;42.624;23.386;2024-02-21T11:08:18;94731.34;;;11.14;nan
7918;BME280;4004;42.624;23.386;2024-02-21T11:10:47;94731.69;;;11.12;nan
7918;BME280;4004;42.624;23.386;2024-02-21T11:13:14;94722.16;;;11.31;nan
7918;BME280;4004;42.624;23.386;2024-02-21T11:15:41;94723.19;;;11.26;nan
7918;BME280;4004;42.624;23.386;2024-02-21T11:18:08;94713.47;;;11.22;nan
7918;BME280;4004;42.624;23.386;2024-02-21T11:20:37;94718.38;;;11.32;nan
7918;BME280;4004;42.624;23.386;2024-02-21T11:23:04;94712.63;;;11.33;nan
7918;BME280;4004;42.624;23.386;2024-02-21T11:25:31;94705.53;;;11.41;nan
7918;BME280;4004;42.624;23.386;2024-02-21T11:28:01;94712.91;;;11.44;nan
7918;BME280;4004;42.624;23.386;2024-02-21T11:30:30;94705.97;;;11.43;nan
7918;BME280;4004;42.624;23.386;2024-02-21T11:33:01;94705.38;;;11.66;nan
7918;BME280;4004;42.624;23.386;2024-02-21T11:35:32;94691.34;;;11.76;nan
7918;BME280;4004;42.624;23.386;2024-02-21T11:38:10;94685.47;;;11.54;nan
7918;BME280;4004;42.624;23.386;2024-02-21T11:40:40;94691.72;;;11.58;nan
7918;BME280;4004;42.624;23.386;2024-02-21T11:43:08;94690.06;;;11.54;nan
7918;BME280;4004;42.624;23.386;2024-02-21T11:45:35;94683.56;;;11.55;nan
7918;BME280;4004;42.624;23.386;2024-02-21T11:48:05;94687.19;;;11.62;nan
7918;BME280;4004;42.624;23.386;2024-02-21T11:50:31;94686.34;;;11.58;nan
7918;BME280;4004;42.624;23.386;2024-02-21T11:52:59;94679.22;;;11.50;nan
7918;BME280;4004;42.624;23.386;2024-02-21T11:55:25;94679.91;;;11.47;nan
7918;BME280;4004;42.624;23.386;2024-02-21T11:57:52;94670.34;;;11.50;nan
7918;BME280;4004;42.624;23.386;2024-02-21T12:00:22;94670.41;;;11.37;nan
7918;BME280;4004;42.624;23.386;2024-02-21T12:02:50;94679.63;;;11.36;nan
7918;BME280;4004;42.624;23.386;2024-02-21T12:05:18;94669.13;;;11.47;nan
7918;BME280;4004;42.624;23.386;2024-02-21T12:07:46;94676.69;;;11.41;nan
7918;BME280;4004;42.624;23.386;2024-02-21T12:10:13;94669.03;;;11.28;nan
7918;BME280;4004;42.624;23.386;2024-02-21T12:12:40;94662.50;;;11.29;nan
7918;BME280;4004;42.624;23.386;2024-02-21T12:15:08;94666.84;;;11.17;nan
7918;BME280;4004;42.624;23.386;2024-02-21T12:17:36;94663.72;;;11.15;nan
7918;BME280;4004;42.624;23.386;2024-02-21T12:20:04;94661.31;;;10.98;nan
7918;BME280;4004;42.624;23.386;2024-02-21T12:22:35;94656.81;;;11.02;nan
7918;BME280;4004;42.624;23.386;2024-02-21T12:25:03;94650.63;;;11.14;nan
7918;BME280;4004;42.624;23.386;2024-02-21T12:27:33;94648.59;;;11.11;nan
7918;BME280;4004;42.624;23.386;2024-02-21T12:30:00;94647.28;;;11.05;nan
7918;BME280;4004;42.624;23.386;2024-02-21T12:32:27;94650.34;;;11.03;nan
7918;BME280;4004;42.624;23.386;2024-02-21T12:34:55;94650.22;;;10.99;nan
7918;BME280;4004;42.624;23.386;2024-02-21T12:37:22;94646.66;;;10.95;nan
7918;BME280;4004;42.624;23.386;2024-02-21T12:39:50;94645.44;;;10.93;nan
7918;BME280;4004;42.624;23.386;2024-02-21T12:42:17;94642.91;;;10.84;nan
7918;BME280;4004;42.624;23.386;2024-02-21T12:44:44;94644.97;;;10.75;nan
7918;BME280;4004;42.624;23.386;2024-02-21T12:47:11;94634.84;;;10.56;nan
7918;BME280;4004;42.624;23.386;2024-02-21T12:49:38;94636.09;;;10.46;nan
7918;BME280;4004;42.624;23.386;2024-02-21T12:52:06;94637.81;;;10.26;nan
7918;BME280;4004;42.624;23.386;2024-02-21T12:54:33;94638.53;;;10.11;nan
7918;BME280;4004;42.624;23.386;2024-02-21T12:57:00;94628.53;;;10.24;nan
7918;BME280;4004;42.624;23.386;2024-02-21T12:59:28;94637.03;;;10.26;nan
7918;BME280;4004;42.624;23.386;2024-02-21T13:01:55;94641.66;;;10.13;nan
7918;BME280;4004;42.624;23.386;2024-02-21T13:04:22;94639.09;;;10.04;nan
7918;BME280;4004;42.624;23.386;2024-02-21T13:06:49;94635.19;;;10.02;nan
7918;BME280;4004;42.624;23.386;2024-02-21T13:09:18;94634.19;;;9.94;nan
7918;BME280;4004;42.624;23.386;2024-02-21T13:11:45;94630.59;;;10.02;nan
7918;BME280;4004;42.624;23.386;2024-02-21T13:14:12;94627.69;;;10.07;nan
7918;BME280;4004;42.624;23.386;2024-02-21T13:16:39;94624.72;;;10.25;nan
7918;BME280;4004;42.624;23.386;2024-02-21T13:19:06;94625.41;;;10.34;nan
7918;BME280;4004;42.624;23.386;2024-02-21T13:21:33;94616.66;;;10.37;nan
7918;BME280;4004;42.624;23.386;2024-02-21T13:24:00;94611.84;;;10.43;nan
7918;BME280;4004;42.624;23.386;2024-02-21T13:26:28;94617.88;;;10.40;nan
7918;BME280;4004;42.624;23.386;2024-02-21T13:28:55;94616.75;;;10.41;nan
7918;BME280;4004;42.624;23.386;2024-02-21T13:31:22;94618.13;;;10.34;nan
7918;BME280;4004;42.624;23.386;2024-02-21T13:33:50;94609.72;;;10.36;nan
7918;BME280;4004;42.624;23.386;2024-02-21T13:36:17;94604.88;;;10.42;nan
7918;BME280;4004;42.624;23.386;2024-02-21T13:38:44;94603.59;;;10.51;nan
7918;BME280;4004;42.624;23.386;2024-02-21T13:41:12;94602.44;;;10.36;nan
7918;BME280;4004;42.624;23.386;2024-02-21T13:43:40;94600.97;;;10.39;nan
7918;BME280;4004;42.624;23.386;2024-02-21T13:46:07;94614.56;;;10.30;nan